sensor_id;sensor_type;location;lat;lon;timestamp;P1;durP1;ratioP1;P2;durP2;ratioP2
72649;SDS011;61467;50.674;4.618;2023-09-12T00:00:08;13.93;;;5.90;;
72649;SDS011;61467;50.674;4.618;2023-09-12T00:02:36;11.20;;;5.50;;
72649;SDS011;61467;50.674;4.618;2023-09-12T00:05:03;13.25;;;5.95;;
72649;SDS011;61467;50.674;4.618;2023-09-12T00:07:32;12.15;;;6.18;;
72649;SDS011;61467;50.674;4.618;2023-09-12T00:09:58;10.30;;;4.70;;
72649;SDS011;61467;50.674;4.618;2023-09-12T00:12:25;11.30;;;5.50;;
72649;SDS011;61467;50.674;4.618;2023-09-12T00:14:52;10.73;;;5.00;;
72649;SDS011;61467;50.674;4.618;2023-09-12T00:17:20;11.52;;;5.13;;
72649;SDS011;61467;50.674;4.618;2023-09-12T00:19:47;11.40;;;5.40;;
72649;SDS011;61467;50.674;4.618;2023-09-12T00:22:14;12.60;;;5.53;;
72649;SDS011;61467;50.674;4.618;2023-09-12T00:24:41;10.43;;;5.60;;
72649;SDS011;61467;50.674;4.618;2023-09-12T00:27:07;10.90;;;5.90;;
72649;SDS011;61467;50.674;4.618;2023-09-12T00:29:34;12.32;;;4.53;;
72649;SDS011;61467;50.674;4.618;2023-09-12T00:32:01;10.02;;;5.28;;
72649;SDS011;61467;50.674;4.618;2023-09-12T00:34:29;10.80;;;4.70;;
72649;SDS011;61467;50.674;4.618;2023-09-12T00:36:56;11.93;;;5.90;;
72649;SDS011;61467;50.674;4.618;2023-09-12T00:39:23;11.77;;;5.55;;
72649;SDS011;61467;50.674;4.618;2023-09-12T00:41:50;14.88;;;5.68;;
72649;SDS011;61467;50.674;4.618;2023-09-12T00:44:17;11.70;;;5.60;;
72649;SDS011;61467;50.674;4.618;2023-09-12T00:46:44;12.60;;;6.07;;
72649;SDS011;61467;50.674;4.618;2023-09-12T00:49:12;11.98;;;5.85;;
72649;SDS011;61467;50.674;4.618;2023-09-12T00:51:41;14.00;;;5.60;;
72649;SDS011;61467;50.674;4.618;2023-09-12T00:54:09;11.38;;;5.78;;
72649;SDS011;61467;50.674;4.618;2023-09-12T00:56:36;11.55;;;5.82;;
72649;SDS011;61467;50.674;4.618;2023-09-12T00:59:03;11.53;;;5.83;;
72649;SDS011;61467;50.674;4.618;2023-09-12T01:01:31;10.68;;;5.20;;
72649;SDS011;61467;50.674;4.618;2023-09-12T01:03:59;13.32;;;6.07;;
72649;SDS011;61467;50.674;4.618;2023-09-12T01:06:27;15.70;;;5.53;;
72649;SDS011;61467;50.674;4.618;2023-09-12T01:08:57;10.68;;;5.15;;
72649;SDS011;61467;50.674;4.618;2023-09-12T01:11:24;12.67;;;5.97;;
72649;SDS011;61467;50.674;4.618;2023-09-12T01:13:51;11.02;;;5.82;;
72649;SDS011;61467;50.674;4.618;2023-09-12T01:16:18;10.82;;;5.90;;
72649;SDS011;61467;50.674;4.618;2023-09-12T01:18:45;11.75;;;5.97;;
72649;SDS011;61467;50.674;4.618;2023-09-12T01:21:19;12.88;;;6.28;;
72649;SDS011;61467;50.674;4.618;2023-09-12T01:24:20;14.40;;;6.90;;
72649;SDS011;61467;50.674;4.618;2023-09-12T01:27:18;13.32;;;6.25;;
72649;SDS011;61467;50.674;4.618;2023-09-12T01:29:47;14.25;;;6.68;;
72649;SDS011;61467;50.674;4.618;2023-09-12T01:32:17;14.30;;;6.75;;
72649;SDS011;61467;50.674;4.618;2023-09-12T01:34:46;12.75;;;7.00;;
72649;SDS011;61467;50.674;4.618;2023-09-12T01:37:13;13.80;;;6.90;;
72649;SDS011;61467;50.674;4.618;2023-09-12T01:39:39;13.88;;;6.90;;
72649;SDS011;61467;50.674;4.618;2023-09-12T01:42:07;13.50;;;7.00;;
72649;SDS011;61467;50.674;4.618;2023-09-12T01:44:39;14.07;;;6.97;;
72649;SDS011;61467;50.674;4.618;2023-09-12T01:47:09;13.40;;;6.90;;
72649;SDS011;61467;50.674;4.618;2023-09-12T01:49:38;15.27;;;7.10;;
72649;SDS011;61467;50.674;4.618;2023-09-12T01:52:07;13.40;;;7.45;;
72649;SDS011;61467;50.674;4.618;2023-09-12T01:54:34;14.95;;;7.47;;
72649;SDS011;61467;50.674;4.618;2023-09-12T01:57:03;16.80;;;7.43;;
72649;SDS011;61467;50.674;4.618;2023-09-12T01:59:30;15.70;;;8.82;;
72649;SDS011;61467;50.674;4.618;2023-09-12T02:01:59;15.57;;;8.50;;
72649;SDS011;61467;50.674;4.618;2023-09-12T02:04:26;14.70;;;8.18;;
72649;SDS011;61467;50.674;4.618;2023-09-12T02:06:53;16.52;;;8.32;;
72649;SDS011;61467;50.674;4.618;2023-09-12T02:09:20;18.95;;;8.77;;
72649;SDS011;61467;50.674;4.618;2023-09-12T02:14:15;16.20;;;9.13;;
72649;SDS011;61467;50.674;4.618;2023-09-12T02:16:43;18.35;;;10.50;;
72649;SDS011;61467;50.674;4.618;2023-09-12T02:19:11;20.88;;;10.93;;
72649;SDS011;61467;50.674;4.618;2023-09-12T02:21:38;19.48;;;10.68;;
72649;SDS011;61467;50.674;4.618;2023-09-12T02:24:05;18.48;;;10.23;;
72649;SDS011;61467;50.674;4.618;2023-09-12T02:26:32;21.20;;;10.73;;
72649;SDS011;61467;50.674;4.618;2023-09-12T02:29:01;19.08;;;10.10;;
72649;SDS011;61467;50.674;4.618;2023-09-12T02:31:30;23.48;;;11.30;;
72649;SDS011;61467;50.674;4.618;2023-09-12T02:33:57;19.80;;;10.30;;
72649;SDS011;61467;50.674;4.618;2023-09-12T02:36:26;17.90;;;9.60;;
72649;SDS011;61467;50.674;4.618;2023-09-12T02:38:53;18.23;;;9.53;;
72649;SDS011;61467;50.674;4.618;2023-09-12T02:41:19;21.60;;;9.88;;
72649;SDS011;61467;50.674;4.618;2023-09-12T02:43:46;18.15;;;10.02;;
72649;SDS011;61467;50.674;4.618;2023-09-12T02:46:13;19.08;;;9.70;;
72649;SDS011;61467;50.674;4.618;2023-09-12T02:48:40;19.38;;;10.32;;
72649;SDS011;61467;50.674;4.618;2023-09-12T02:51:07;20.80;;;10.57;;
72649;SDS011;61467;50.674;4.618;2023-09-12T02:53:35;19.42;;;10.32;;
72649;SDS011;61467;50.674;4.618;2023-09-12T02:56:02;21.80;;;10.50;;
72649;SDS011;61467;50.674;4.618;2023-09-12T02:58:29;24.27;;;11.15;;
72649;SDS011;61467;50.674;4.618;2023-09-12T03:00:55;19.65;;;10.23;;
72649;SDS011;61467;50.674;4.618;2023-09-12T03:03:22;19.97;;;10.53;;
72649;SDS011;61467;50.674;4.618;2023-09-12T03:05:56;20.20;;;10.60;;
72649;SDS011;61467;50.674;4.618;2023-09-12T03:08:24;23.83;;;10.65;;
72649;SDS011;61467;50.674;4.618;2023-09-12T03:10:54;21.05;;;10.95;;
72649;SDS011;61467;50.674;4.618;2023-09-12T03:13:22;22.48;;;11.48;;
72649;SDS011;61467;50.674;4.618;2023-09-12T03:15:49;21.57;;;11.20;;
72649;SDS011;61467;50.674;4.618;2023-09-12T03:18:17;21.20;;;11.60;;
72649;SDS011;61467;50.674;4.618;2023-09-12T03:20:43;23.80;;;11.82;;
72649;SDS011;61467;50.674;4.618;2023-09-12T03:23:10;24.90;;;12.65;;
72649;SDS011;61467;50.674;4.618;2023-09-12T03:25:37;22.90;;;11.82;;
72649;SDS011;61467;50.674;4.618;2023-09-12T03:28:06;24.03;;;11.53;;
72649;SDS011;61467;50.674;4.618;2023-09-12T03:30:33;22.13;;;12.80;;
72649;SDS011;61467;50.674;4.618;2023-09-12T03:33:01;21.70;;;11.75;;
72649;SDS011;61467;50.674;4.618;2023-09-12T03:35:28;26.50;;;12.48;;
72649;SDS011;61467;50.674;4.618;2023-09-12T03:37:55;27.40;;;12.88;;
72649;SDS011;61467;50.674;4.618;2023-09-12T03:40:21;24.60;;;12.80;;
72649;SDS011;61467;50.674;4.618;2023-09-12T03:42:48;24.60;;;12.40;;
72649;SDS011;61467;50.674;4.618;2023-09-12T03:45:17;26.67;;;14.27;;
72649;SDS011;61467;50.674;4.618;2023-09-12T03:47:43;25.42;;;13.32;;
72649;SDS011;61467;50.674;4.618;2023-09-12T03:50:12;34.60;;;16.58;;
72649;SDS011;61467;50.674;4.618;2023-09-12T03:52:39;24.00;;;13.57;;
72649;SDS011;61467;50.674;4.618;2023-09-12T03:55:06;27.60;;;13.40;;
72649;SDS011;61467;50.674;4.618;2023-09-12T03:57:34;26.08;;;13.15;;
72649;SDS011;61467;50.674;4.618;2023-09-12T04:00:01;24.40;;;13.27;;
72649;SDS011;61467;50.674;4.618;2023-09-12T04:02:32;24.88;;;12.90;;
72649;SDS011;61467;50.674;4.618;2023-09-12T04:04:59;25.60;;;12.60;;
72649;SDS011;61467;50.674;4.618;2023-09-12T04:07:25;27.90;;;14.35;;
72649;SDS011;61467;50.674;4.618;2023-09-12T04:09:52;26.02;;;13.45;;
72649;SDS011;61467;50.674;4.618;2023-09-12T04:12:19;26.75;;;13.30;;
72649;SDS011;61467;50.674;4.618;2023-09-12T04:14:48;25.35;;;13.13;;
72649;SDS011;61467;50.674;4.618;2023-09-12T04:17:15;24.97;;;12.97;;
72649;SDS011;61467;50.674;4.618;2023-09-12T04:19:43;24.88;;;13.23;;
72649;SDS011;61467;50.674;4.618;2023-09-12T04:22:10;24.85;;;13.45;;
72649;SDS011;61467;50.674;4.618;2023-09-12T04:24:37;23.27;;;12.80;;
72649;SDS011;61467;50.674;4.618;2023-09-12T04:27:04;24.65;;;13.48;;
72649;SDS011;61467;50.674;4.618;2023-09-12T04:29:32;26.60;;;13.40;;
72649;SDS011;61467;50.674;4.618;2023-09-12T04:31:59;27.17;;;13.95;;
72649;SDS011;61467;50.674;4.618;2023-09-12T04:34:25;27.35;;;13.63;;
72649;SDS011;61467;50.674;4.618;2023-09-12T04:36:54;27.63;;;13.73;;
72649;SDS011;61467;50.674;4.618;2023-09-12T04:39:21;28.88;;;13.60;;
72649;SDS011;61467;50.674;4.618;2023-09-12T04:41:48;26.47;;;14.17;;
72649;SDS011;61467;50.674;4.618;2023-09-12T04:44:15;29.00;;;13.52;;
72649;SDS011;61467;50.674;4.618;2023-09-12T04:46:41;26.63;;;13.32;;
72649;SDS011;61467;50.674;4.618;2023-09-12T04:49:08;32.22;;;13.77;;
72649;SDS011;61467;50.674;4.618;2023-09-12T04:51:35;25.95;;;13.18;;
72649;SDS011;61467;50.674;4.618;2023-09-12T04:54:04;24.93;;;13.07;;
72649;SDS011;61467;50.674;4.618;2023-09-12T04:56:31;27.88;;;12.98;;
72649;SDS011;61467;50.674;4.618;2023-09-12T04:58:58;27.42;;;13.18;;
72649;SDS011;61467;50.674;4.618;2023-09-12T05:01:25;27.15;;;12.95;;
72649;SDS011;61467;50.674;4.618;2023-09-12T05:03:52;25.52;;;12.55;;
72649;SDS011;61467;50.674;4.618;2023-09-12T05:06:19;24.87;;;12.77;;
72649;SDS011;61467;50.674;4.618;2023-09-12T05:08:45;24.83;;;12.57;;
72649;SDS011;61467;50.674;4.618;2023-09-12T05:11:14;26.27;;;13.25;;
72649;SDS011;61467;50.674;4.618;2023-09-12T05:13:40;24.95;;;13.57;;
72649;SDS011;61467;50.674;4.618;2023-09-12T05:16:07;25.48;;;13.23;;
72649;SDS011;61467;50.674;4.618;2023-09-12T05:18:34;28.10;;;14.00;;
72649;SDS011;61467;50.674;4.618;2023-09-12T05:21:01;26.67;;;14.13;;
72649;SDS011;61467;50.674;4.618;2023-09-12T05:23:28;26.58;;;14.43;;
72649;SDS011;61467;50.674;4.618;2023-09-12T05:25:54;25.50;;;13.60;;
72649;SDS011;61467;50.674;4.618;2023-09-12T05:28:23;31.67;;;14.55;;
72649;SDS011;61467;50.674;4.618;2023-09-12T05:30:50;28.10;;;14.70;;
72649;SDS011;61467;50.674;4.618;2023-09-12T05:33:16;24.67;;;13.65;;
72649;SDS011;61467;50.674;4.618;2023-09-12T05:35:43;26.60;;;13.85;;
72649;SDS011;61467;50.674;4.618;2023-09-12T05:38:10;30.90;;;15.45;;
72649;SDS011;61467;50.674;4.618;2023-09-12T05:40:37;27.85;;;14.07;;
72649;SDS011;61467;50.674;4.618;2023-09-12T05:43:04;32.77;;;15.20;;
72649;SDS011;61467;50.674;4.618;2023-09-12T05:45:33;29.50;;;15.18;;
72649;SDS011;61467;50.674;4.618;2023-09-12T05:47:59;32.67;;;16.52;;
72649;SDS011;61467;50.674;4.618;2023-09-12T05:50:28;38.83;;;17.05;;
72649;SDS011;61467;50.674;4.618;2023-09-12T05:52:55;42.97;;;16.48;;
72649;SDS011;61467;50.674;4.618;2023-09-12T05:55:22;31.63;;;15.00;;
72649;SDS011;61467;50.674;4.618;2023-09-12T05:57:49;31.33;;;15.93;;
72649;SDS011;61467;50.674;4.618;2023-09-12T06:00:17;39.08;;;16.25;;
72649;SDS011;61467;50.674;4.618;2023-09-12T06:02:46;27.73;;;15.07;;
72649;SDS011;61467;50.674;4.618;2023-09-12T06:05:13;31.35;;;14.27;;
72649;SDS011;61467;50.674;4.618;2023-09-12T06:07:40;40.87;;;13.90;;
72649;SDS011;61467;50.674;4.618;2023-09-12T06:10:07;39.17;;;13.90;;
72649;SDS011;61467;50.674;4.618;2023-09-12T06:12:35;27.48;;;14.93;;
72649;SDS011;61467;50.674;4.618;2023-09-12T06:15:02;25.80;;;14.18;;
72649;SDS011;61467;50.674;4.618;2023-09-12T06:17:29;29.98;;;13.50;;
72649;SDS011;61467;50.674;4.618;2023-09-12T06:19:58;23.67;;;11.73;;
72649;SDS011;61467;50.674;4.618;2023-09-12T06:22:25;25.98;;;13.55;;
72649;SDS011;61467;50.674;4.618;2023-09-12T06:24:52;25.25;;;13.55;;
72649;SDS011;61467;50.674;4.618;2023-09-12T06:27:19;26.02;;;13.32;;
72649;SDS011;61467;50.674;4.618;2023-09-12T06:29:46;25.85;;;14.15;;
72649;SDS011;61467;50.674;4.618;2023-09-12T06:32:13;25.53;;;13.00;;
72649;SDS011;61467;50.674;4.618;2023-09-12T06:34:40;30.05;;;13.77;;
72649;SDS011;61467;50.674;4.618;2023-09-12T06:37:08;28.05;;;14.13;;
72649;SDS011;61467;50.674;4.618;2023-09-12T06:39:35;30.42;;;14.88;;
72649;SDS011;61467;50.674;4.618;2023-09-12T06:42:02;28.55;;;14.52;;
72649;SDS011;61467;50.674;4.618;2023-09-12T06:44:29;28.17;;;14.63;;
72649;SDS011;61467;50.674;4.618;2023-09-12T06:46:56;31.20;;;15.85;;
72649;SDS011;61467;50.674;4.618;2023-09-12T06:49:23;32.63;;;15.60;;
72649;SDS011;61467;50.674;4.618;2023-09-12T06:51:50;30.40;;;15.27;;
72649;SDS011;61467;50.674;4.618;2023-09-12T06:54:18;33.80;;;16.08;;
72649;SDS011;61467;50.674;4.618;2023-09-12T06:56:44;35.47;;;17.93;;
72649;SDS011;61467;50.674;4.618;2023-09-12T06:59:11;33.53;;;17.02;;
72649;SDS011;61467;50.674;4.618;2023-09-12T07:01:38;38.00;;;18.33;;
72649;SDS011;61467;50.674;4.618;2023-09-12T07:04:05;36.58;;;16.95;;
72649;SDS011;61467;50.674;4.618;2023-09-12T07:06:32;40.42;;;18.63;;
72649;SDS011;61467;50.674;4.618;2023-09-12T07:08:59;34.53;;;16.80;;
72649;SDS011;61467;50.674;4.618;2023-09-12T07:11:27;36.63;;;17.58;;
72649;SDS011;61467;50.674;4.618;2023-09-12T07:13:54;32.90;;;17.25;;
72649;SDS011;61467;50.674;4.618;2023-09-12T07:16:21;34.42;;;16.80;;
72649;SDS011;61467;50.674;4.618;2023-09-12T07:18:47;36.70;;;17.48;;
72649;SDS011;61467;50.674;4.618;2023-09-12T07:21:15;35.10;;;17.60;;
72649;SDS011;61467;50.674;4.618;2023-09-12T07:23:42;35.75;;;17.70;;
72649;SDS011;61467;50.674;4.618;2023-09-12T07:26:11;40.38;;;19.38;;
72649;SDS011;61467;50.674;4.618;2023-09-12T07:28:40;37.75;;;17.23;;
72649;SDS011;61467;50.674;4.618;2023-09-12T07:31:07;40.05;;;19.50;;
72649;SDS011;61467;50.674;4.618;2023-09-12T07:33:35;36.97;;;17.37;;
72649;SDS011;61467;50.674;4.618;2023-09-12T07:36:02;37.30;;;18.08;;
72649;SDS011;61467;50.674;4.618;2023-09-12T07:38:29;37.40;;;17.98;;
72649;SDS011;61467;50.674;4.618;2023-09-12T07:40:57;35.67;;;17.15;;
72649;SDS011;61467;50.674;4.618;2023-09-12T07:43:25;35.88;;;17.17;;
72649;SDS011;61467;50.674;4.618;2023-09-12T07:45:55;33.87;;;16.53;;
72649;SDS011;61467;50.674;4.618;2023-09-12T07:48:22;34.63;;;16.00;;
72649;SDS011;61467;50.674;4.618;2023-09-12T07:50:49;40.30;;;18.83;;
72649;SDS011;61467;50.674;4.618;2023-09-12T07:53:16;36.85;;;17.58;;
72649;SDS011;61467;50.674;4.618;2023-09-12T07:55:43;35.97;;;17.90;;
72649;SDS011;61467;50.674;4.618;2023-09-12T07:58:12;41.33;;;19.17;;
72649;SDS011;61467;50.674;4.618;2023-09-12T08:00:40;38.92;;;18.58;;
72649;SDS011;61467;50.674;4.618;2023-09-12T08:03:09;37.55;;;18.27;;
72649;SDS011;61467;50.674;4.618;2023-09-12T08:05:35;41.17;;;19.25;;
72649;SDS011;61467;50.674;4.618;2023-09-12T08:08:03;38.92;;;18.48;;
72649;SDS011;61467;50.674;4.618;2023-09-12T08:10:30;41.30;;;18.07;;
72649;SDS011;61467;50.674;4.618;2023-09-12T08:12:57;44.70;;;21.52;;
72649;SDS011;61467;50.674;4.618;2023-09-12T08:15:25;38.17;;;18.52;;
72649;SDS011;61467;50.674;4.618;2023-09-12T08:17:53;37.10;;;17.50;;
72649;SDS011;61467;50.674;4.618;2023-09-12T08:20:21;36.83;;;17.67;;
72649;SDS011;61467;50.674;4.618;2023-09-12T08:22:48;35.07;;;17.87;;
72649;SDS011;61467;50.674;4.618;2023-09-12T08:25:15;36.60;;;17.95;;
72649;SDS011;61467;50.674;4.618;2023-09-12T08:27:43;33.28;;;15.77;;
72649;SDS011;61467;50.674;4.618;2023-09-12T08:30:10;31.05;;;14.77;;
72649;SDS011;61467;50.674;4.618;2023-09-12T08:32:38;30.10;;;14.93;;
72649;SDS011;61467;50.674;4.618;2023-09-12T08:35:08;29.23;;;12.77;;
72649;SDS011;61467;50.674;4.618;2023-09-12T08:37:38;28.50;;;14.20;;
72649;SDS011;61467;50.674;4.618;2023-09-12T08:40:06;28.33;;;13.52;;
72649;SDS011;61467;50.674;4.618;2023-09-12T08:42:37;24.83;;;11.98;;
72649;SDS011;61467;50.674;4.618;2023-09-12T08:45:08;22.40;;;10.88;;
72649;SDS011;61467;50.674;4.618;2023-09-12T08:47:39;20.30;;;10.13;;
72649;SDS011;61467;50.674;4.618;2023-09-12T08:50:08;18.30;;;9.65;;
72649;SDS011;61467;50.674;4.618;2023-09-12T08:52:38;22.35;;;10.68;;
72649;SDS011;61467;50.674;4.618;2023-09-12T08:55:06;22.20;;;10.20;;
72649;SDS011;61467;50.674;4.618;2023-09-12T08:57:34;23.48;;;11.32;;
72649;SDS011;61467;50.674;4.618;2023-09-12T09:00:05;24.33;;;11.13;;
72649;SDS011;61467;50.674;4.618;2023-09-12T09:02:34;24.13;;;11.40;;
72649;SDS011;61467;50.674;4.618;2023-09-12T09:05:01;20.77;;;10.88;;
72649;SDS011;61467;50.674;4.618;2023-09-12T09:07:30;24.60;;;11.85;;
72649;SDS011;61467;50.674;4.618;2023-09-12T09:10:00;21.77;;;10.73;;
72649;SDS011;61467;50.674;4.618;2023-09-12T09:12:30;22.20;;;11.10;;
72649;SDS011;61467;50.674;4.618;2023-09-12T09:14:57;22.20;;;11.02;;
72649;SDS011;61467;50.674;4.618;2023-09-12T09:17:25;20.92;;;10.80;;
72649;SDS011;61467;50.674;4.618;2023-09-12T09:19:52;18.52;;;9.68;;
72649;SDS011;61467;50.674;4.618;2023-09-12T09:22:20;26.55;;;10.75;;
72649;SDS011;61467;50.674;4.618;2023-09-12T09:24:48;18.70;;;9.07;;
72649;SDS011;61467;50.674;4.618;2023-09-12T09:30:13;17.23;;;8.67;;
72649;SDS011;61467;50.674;4.618;2023-09-12T09:32:40;16.67;;;8.55;;
72649;SDS011;61467;50.674;4.618;2023-09-12T09:35:07;16.88;;;7.68;;
72649;SDS011;61467;50.674;4.618;2023-09-12T09:37:35;16.92;;;7.65;;
72649;SDS011;61467;50.674;4.618;2023-09-12T09:40:04;15.35;;;7.57;;
72649;SDS011;61467;50.674;4.618;2023-09-12T09:42:32;14.10;;;6.83;;
72649;SDS011;61467;50.674;4.618;2023-09-12T09:44:59;15.70;;;6.68;;
72649;SDS011;61467;50.674;4.618;2023-09-12T09:47:29;16.55;;;8.07;;
72649;SDS011;61467;50.674;4.618;2023-09-12T09:49:57;15.30;;;7.30;;
72649;SDS011;61467;50.674;4.618;2023-09-12T09:52:25;13.40;;;6.63;;
72649;SDS011;61467;50.674;4.618;2023-09-12T09:54:53;12.77;;;6.90;;
72649;SDS011;61467;50.674;4.618;2023-09-12T09:57:19;14.52;;;6.50;;
72649;SDS011;61467;50.674;4.618;2023-09-12T09:59:48;14.23;;;5.90;;
72649;SDS011;61467;50.674;4.618;2023-09-12T10:02:18;15.65;;;6.78;;
72649;SDS011;61467;50.674;4.618;2023-09-12T10:04:49;12.32;;;5.95;;
72649;SDS011;61467;50.674;4.618;2023-09-12T10:07:18;13.63;;;6.00;;
72649;SDS011;61467;50.674;4.618;2023-09-12T10:09:46;11.73;;;5.57;;
72649;SDS011;61467;50.674;4.618;2023-09-12T10:12:13;12.45;;;5.45;;
72649;SDS011;61467;50.674;4.618;2023-09-12T10:14:40;12.57;;;4.95;;
72649;SDS011;61467;50.674;4.618;2023-09-12T10:17:08;10.88;;;4.90;;
72649;SDS011;61467;50.674;4.618;2023-09-12T10:19:38;12.03;;;5.53;;
72649;SDS011;61467;50.674;4.618;2023-09-12T10:22:12;13.95;;;5.57;;
72649;SDS011;61467;50.674;4.618;2023-09-12T10:24:44;10.70;;;4.80;;
72649;SDS011;61467;50.674;4.618;2023-09-12T10:27:12;11.43;;;5.35;;
72649;SDS011;61467;50.674;4.618;2023-09-12T10:29:39;12.27;;;5.40;;
72649;SDS011;61467;50.674;4.618;2023-09-12T10:32:07;15.90;;;6.53;;
72649;SDS011;61467;50.674;4.618;2023-09-12T10:34:35;14.00;;;5.40;;
72649;SDS011;61467;50.674;4.618;2023-09-12T10:37:04;13.63;;;5.90;;
72649;SDS011;61467;50.674;4.618;2023-09-12T10:39:36;12.15;;;5.90;;
72649;SDS011;61467;50.674;4.618;2023-09-12T10:42:04;11.50;;;5.72;;
72649;SDS011;61467;50.674;4.618;2023-09-12T10:44:31;13.87;;;6.10;;
72649;SDS011;61467;50.674;4.618;2023-09-12T10:47:00;10.32;;;4.80;;
72649;SDS011;61467;50.674;4.618;2023-09-12T10:49:28;10.18;;;4.65;;
72649;SDS011;61467;50.674;4.618;2023-09-12T10:51:56;9.32;;;4.40;;
72649;SDS011;61467;50.674;4.618;2023-09-12T10:54:24;9.77;;;4.63;;
72649;SDS011;61467;50.674;4.618;2023-09-12T10:57:03;8.57;;;3.90;;
72649;SDS011;61467;50.674;4.618;2023-09-12T10:59:30;11.00;;;4.68;;
72649;SDS011;61467;50.674;4.618;2023-09-12T11:04:53;11.10;;;5.00;;
72649;SDS011;61467;50.674;4.618;2023-09-12T11:07:30;10.23;;;5.13;;
72649;SDS011;61467;50.674;4.618;2023-09-12T11:10:17;12.20;;;5.80;;
72649;SDS011;61467;50.674;4.618;2023-09-12T11:12:48;10.05;;;5.00;;
72649;SDS011;61467;50.674;4.618;2023-09-12T11:15:15;11.32;;;5.18;;
72649;SDS011;61467;50.674;4.618;2023-09-12T11:17:44;12.32;;;5.60;;
72649;SDS011;61467;50.674;4.618;2023-09-12T11:20:12;11.32;;;5.30;;
72649;SDS011;61467;50.674;4.618;2023-09-12T11:22:40;10.70;;;5.20;;
72649;SDS011;61467;50.674;4.618;2023-09-12T11:25:17;11.27;;;4.90;;
72649;SDS011;61467;50.674;4.618;2023-09-12T11:28:03;12.20;;;5.95;;
72649;SDS011;61467;50.674;4.618;2023-09-12T11:30:31;11.80;;;5.20;;
72649;SDS011;61467;50.674;4.618;2023-09-12T11:32:59;9.70;;;4.93;;
72649;SDS011;61467;50.674;4.618;2023-09-12T11:35:29;9.27;;;4.80;;
72649;SDS011;61467;50.674;4.618;2023-09-12T11:37:57;9.50;;;4.50;;
72649;SDS011;61467;50.674;4.618;2023-09-12T11:40:26;10.10;;;4.05;;
72649;SDS011;61467;50.674;4.618;2023-09-12T11:43:09;9.48;;;4.20;;
72649;SDS011;61467;50.674;4.618;2023-09-12T11:45:46;10.10;;;4.43;;
72649;SDS011;61467;50.674;4.618;2023-09-12T11:48:14;11.03;;;4.33;;
72649;SDS011;61467;50.674;4.618;2023-09-12T11:50:41;9.70;;;4.40;;
72649;SDS011;61467;50.674;4.618;2023-09-12T11:53:08;8.10;;;4.47;;
72649;SDS011;61467;50.674;4.618;2023-09-12T11:55:36;9.38;;;4.22;;
72649;SDS011;61467;50.674;4.618;2023-09-12T11:58:10;7.93;;;4.20;;
72649;SDS011;61467;50.674;4.618;2023-09-12T12:00:37;9.17;;;4.30;;
72649;SDS011;61467;50.674;4.618;2023-09-12T12:03:04;9.05;;;4.40;;
72649;SDS011;61467;50.674;4.618;2023-09-12T12:05:31;8.85;;;4.35;;
72649;SDS011;61467;50.674;4.618;2023-09-12T12:07:59;8.75;;;4.65;;
72649;SDS011;61467;50.674;4.618;2023-09-12T12:10:26;9.38;;;4.53;;
72649;SDS011;61467;50.674;4.618;2023-09-12T12:12:53;10.50;;;3.83;;
72649;SDS011;61467;50.674;4.618;2023-09-12T12:15:21;10.65;;;4.35;;
72649;SDS011;61467;50.674;4.618;2023-09-12T12:17:48;11.32;;;5.35;;
72649;SDS011;61467;50.674;4.618;2023-09-12T12:20:15;11.65;;;5.65;;
72649;SDS011;61467;50.674;4.618;2023-09-12T12:22:42;8.80;;;4.50;;
72649;SDS011;61467;50.674;4.618;2023-09-12T12:25:10;9.57;;;4.50;;
72649;SDS011;61467;50.674;4.618;2023-09-12T12:27:37;8.18;;;4.13;;
72649;SDS011;61467;50.674;4.618;2023-09-12T12:30:06;9.32;;;4.20;;
72649;SDS011;61467;50.674;4.618;2023-09-12T12:32:37;9.77;;;4.03;;
72649;SDS011;61467;50.674;4.618;2023-09-12T12:35:06;8.52;;;3.70;;
72649;SDS011;61467;50.674;4.618;2023-09-12T12:37:33;9.43;;;4.17;;
72649;SDS011;61467;50.674;4.618;2023-09-12T12:40:01;9.55;;;3.78;;
72649;SDS011;61467;50.674;4.618;2023-09-12T12:42:32;8.20;;;3.80;;
72649;SDS011;61467;50.674;4.618;2023-09-12T12:45:00;10.20;;;4.63;;
72649;SDS011;61467;50.674;4.618;2023-09-12T12:47:28;9.15;;;4.97;;
72649;SDS011;61467;50.674;4.618;2023-09-12T12:49:58;9.67;;;4.37;;
72649;SDS011;61467;50.674;4.618;2023-09-12T12:52:25;9.77;;;4.65;;
72649;SDS011;61467;50.674;4.618;2023-09-12T12:54:52;10.23;;;5.10;;
72649;SDS011;61467;50.674;4.618;2023-09-12T12:57:19;11.27;;;5.63;;
72649;SDS011;61467;50.674;4.618;2023-09-12T12:59:47;10.27;;;4.63;;
72649;SDS011;61467;50.674;4.618;2023-09-12T13:02:14;9.07;;;4.60;;
72649;SDS011;61467;50.674;4.618;2023-09-12T13:04:41;11.82;;;5.72;;
72649;SDS011;61467;50.674;4.618;2023-09-12T13:07:09;9.05;;;5.00;;
72649;SDS011;61467;50.674;4.618;2023-09-12T13:09:36;10.65;;;5.15;;
72649;SDS011;61467;50.674;4.618;2023-09-12T13:12:05;9.80;;;5.30;;
72649;SDS011;61467;50.674;4.618;2023-09-12T13:14:34;9.37;;;4.57;;
72649;SDS011;61467;50.674;4.618;2023-09-12T13:17:01;10.93;;;5.40;;
72649;SDS011;61467;50.674;4.618;2023-09-12T13:19:28;10.35;;;4.50;;
72649;SDS011;61467;50.674;4.618;2023-09-12T13:21:55;9.50;;;4.88;;
72649;SDS011;61467;50.674;4.618;2023-09-12T13:24:23;10.50;;;5.07;;
72649;SDS011;61467;50.674;4.618;2023-09-12T13:26:50;10.27;;;4.47;;
72649;SDS011;61467;50.674;4.618;2023-09-12T13:29:18;11.65;;;4.82;;
72649;SDS011;61467;50.674;4.618;2023-09-12T13:31:44;11.90;;;4.80;;
72649;SDS011;61467;50.674;4.618;2023-09-12T13:34:11;9.55;;;4.70;;
72649;SDS011;61467;50.674;4.618;2023-09-12T13:36:38;10.15;;;4.53;;
72649;SDS011;61467;50.674;4.618;2023-09-12T13:39:06;9.77;;;4.80;;
72649;SDS011;61467;50.674;4.618;2023-09-12T13:41:34;9.93;;;4.65;;
72649;SDS011;61467;50.674;4.618;2023-09-12T13:44:01;12.32;;;4.90;;
72649;SDS011;61467;50.674;4.618;2023-09-12T13:46:28;8.38;;;4.68;;
72649;SDS011;61467;50.674;4.618;2023-09-12T13:48:56;9.48;;;4.43;;
72649;SDS011;61467;50.674;4.618;2023-09-12T13:51:25;8.10;;;4.53;;
72649;SDS011;61467;50.674;4.618;2023-09-12T13:53:52;9.18;;;4.70;;
72649;SDS011;61467;50.674;4.618;2023-09-12T13:56:19;12.40;;;5.03;;
72649;SDS011;61467;50.674;4.618;2023-09-12T13:58:47;8.77;;;4.60;;
72649;SDS011;61467;50.674;4.618;2023-09-12T14:01:15;10.55;;;5.30;;
72649;SDS011;61467;50.674;4.618;2023-09-12T14:03:43;10.63;;;4.93;;
72649;SDS011;61467;50.674;4.618;2023-09-12T14:06:10;9.23;;;4.65;;
72649;SDS011;61467;50.674;4.618;2023-09-12T14:08:37;11.98;;;4.60;;
72649;SDS011;61467;50.674;4.618;2023-09-12T14:11:04;8.50;;;4.95;;
72649;SDS011;61467;50.674;4.618;2023-09-12T14:13:30;10.15;;;4.95;;
72649;SDS011;61467;50.674;4.618;2023-09-12T14:15:59;11.07;;;5.17;;
72649;SDS011;61467;50.674;4.618;2023-09-12T14:18:25;9.13;;;4.95;;
72649;SDS011;61467;50.674;4.618;2023-09-12T14:20:53;13.40;;;5.60;;
72649;SDS011;61467;50.674;4.618;2023-09-12T14:23:20;11.15;;;5.72;;
72649;SDS011;61467;50.674;4.618;2023-09-12T14:25:47;9.80;;;4.97;;
72649;SDS011;61467;50.674;4.618;2023-09-12T14:28:14;9.03;;;4.50;;
72649;SDS011;61467;50.674;4.618;2023-09-12T14:30:40;14.70;;;6.13;;
72649;SDS011;61467;50.674;4.618;2023-09-12T14:33:11;14.48;;;7.53;;
72649;SDS011;61467;50.674;4.618;2023-09-12T14:35:39;11.55;;;6.00;;
72649;SDS011;61467;50.674;4.618;2023-09-12T14:38:06;14.73;;;6.15;;
72649;SDS011;61467;50.674;4.618;2023-09-12T14:40:33;9.87;;;5.03;;
72649;SDS011;61467;50.674;4.618;2023-09-12T14:43:00;12.15;;;5.13;;